ALXO2: Washita River, Alex, OK

Data processed at Wed May 22 2019 23:30


All information presented herein is the property of the government of the United States of America and may be revised or deleted at any time without prior notice.
Dissemination of this information without the expressed written consent of the Public Affairs Office, Tulsa District U.S. Army Corps of Engineers is strictly prohibited.
These data are gathered electronically and, as presented, have not undergone any form of quality control. These data are not guaranteed to be valid or correct.
Go to home page.
Go to station list.
Go to home page.

Upstream stations:

Downstream station:
Previous Day
Next Day
Current Day
    
SHEF ID:       ALXO2     Washita River at Alex, OK
STATION TYPE:  
Regulating: Stage =    19.00, Flow =    19987

               PRECIP     STAGE  RIV-FLOW  BAT-LOAD
                   in        ft       cfs      volt
              Ccp-Rev   Ccp-Rev   Ccp-Rev   Ccp-Rev
(US/Central)
05/22 00:00      0.00     16.55     15260     12.57
05/22 01:00      0.00     16.51     15188     12.49
05/22 02:00      0.00     16.48     15133     12.57
05/22 03:00      0.00     16.39     14971     12.49
05/22 04:00      0.00     16.23     14684     12.49
05/22 05:00      0.00     16.08     14416     12.49
05/22 06:00      0.00     15.95     14187     12.49
05/22 07:00      0.00     15.82     13959     12.41
05/22 08:00      0.00     15.59     13559     12.49
05/22 09:00      0.00     15.44     13301     12.73
05/22 10:00      0.00     15.30     13062     12.89
05/22 11:00      0.00     15.08     12690     12.89
05/22 12:00      0.00     14.93     12439     12.89
05/22 13:00      0.00     14.84     12290     12.89
05/22 14:00      0.00     14.66     11993     12.81
05/22 15:00      0.00     14.55     11814     12.81
05/22 16:00      0.00     14.48     11700     12.73
05/22 17:00      0.00     14.35     11490     12.73
05/22 18:00      0.00     14.26     11346     12.73
05/22 19:00      0.01     14.17     11202     12.73
05/22 20:00      0.00     14.07     11043     12.65
05/22 21:00      0.00     13.92     10807     12.57
05/22 22:00      0.00     13.86     10713     12.57
05/22 23:00      0.00     13.74     10527     12.57